PWSweather.com
Personal Weather Stations
Station Observations
UWIDEPER1
Brown County, Depere, WI 54115

Brown CountyDepere, WI 54115

Lat: 44.44, Lon: -88.05

Elevation: 610

Station Type: Acurite 5in1

Latest ConditionsUpdated 7:35:01 PM CDT Sunday, Mar 26, 2017
Currently Today's Max Today's Min Today's Average
Temperature 35.1°F1.7°C 37.6°F3.1°C 35.1°F1.7°C 36.9°F2.7°C
Dew Point 34.0°F1.1°C 36.5°F2.5°C 34.0°F1.1°C 35.2°F1.8°C
Winds 2.3 mph NE3.7 kmh NE 4.6 mph NNW7.4 kmh NNW - 3.8 mph 6.1 kmh
Wind Gusts 2.3 mph3.7 kmh 5.8 mph9.3 kmh - -
Humidity 96% 96% 91% 94%
Pressure 29.86 in1011.2 mb 29.98 in1015.2 mb 0.00 in0.0 mb -
Precipitation - 0.15 in3.8 mm - -
Hour Temp Dew Point Humidity Winds Wind Gusts Pressure Precip Precip Rate Daily Precip Total
07:35 PM 35.1°F1.7°C 34.0°F1.1°C 96% 2.3 mph NE3.7 kmh NE 2.3 mph3.7 kmh 29.86 in1011.2 mb - 0.00 in0.0 mm 0.15 in3.8 mm
07:30 PM 35.4°F1.9°C 34.4°F1.3°C 96% 2.3 mph NNW3.7 kmh NNW 2.3 mph3.7 kmh 29.86 in1011.2 mb - 0.00 in0.0 mm 0.15 in3.8 mm
07:25 PM 35.4°F1.9°C 34.4°F1.3°C 96% 3.5 mph N5.6 kmh N 5.8 mph9.3 kmh 29.86 in1011.2 mb - 0.00 in0.0 mm 0.15 in3.8 mm
07:20 PM 35.4°F1.9°C 34.4°F1.3°C 96% 4.6 mph NE7.4 kmh NE 5.8 mph9.3 kmh 29.87 in1011.5 mb - 0.00 in0.0 mm 0.15 in3.8 mm
07:15 PM 35.4°F1.9°C 34.4°F1.3°C 96% 3.5 mph NW5.6 kmh NW 4.6 mph7.4 kmh 29.86 in1011.2 mb - 0.00 in0.0 mm 0.15 in3.8 mm
07:10 PM 35.4°F1.9°C 34.4°F1.3°C 96% 3.5 mph NNE5.6 kmh NNE 4.6 mph7.4 kmh 29.86 in1011.2 mb - 0.00 in0.0 mm 0.15 in3.8 mm
07:00 PM 35.4°F1.9°C 34.4°F1.3°C 96% 2.3 mph NE3.7 kmh NE 4.6 mph7.4 kmh 29.86 in1011.2 mb - 0.01 in0.3 mm 0.15 in3.8 mm
06:55 PM 35.8°F2.1°C 34.8°F1.6°C 96% 2.3 mph NE3.7 kmh NE 3.5 mph5.6 kmh 29.86 in1011.2 mb - 0.00 in0.0 mm 0.14 in3.6 mm
06:50 PM 35.8°F2.1°C 34.8°F1.6°C 96% 2.3 mph N3.7 kmh N 3.5 mph5.6 kmh 29.86 in1011.2 mb - 0.00 in0.0 mm 0.14 in3.6 mm
06:45 PM 35.8°F2.1°C 34.8°F1.6°C 96% 2.3 mph NE3.7 kmh NE 2.3 mph3.7 kmh 29.86 in1011.2 mb - 0.00 in0.0 mm 0.14 in3.6 mm
06:40 PM 35.8°F2.1°C 34.8°F1.6°C 96% 2.3 mph NNE3.7 kmh NNE 3.5 mph5.6 kmh 29.86 in1011.2 mb - 0.00 in0.0 mm 0.14 in3.6 mm
06:35 PM 35.8°F2.1°C 34.8°F1.6°C 96% 2.3 mph NNE3.7 kmh NNE 3.5 mph5.6 kmh 29.86 in1011.2 mb - 0.00 in0.0 mm 0.14 in3.6 mm
06:30 PM 35.8°F2.1°C 34.8°F1.6°C 96% 2.3 mph NNW3.7 kmh NNW 2.3 mph3.7 kmh 29.86 in1011.2 mb - 0.00 in0.0 mm 0.14 in3.6 mm
06:25 PM 35.8°F2.1°C 34.8°F1.6°C 96% 3.5 mph NNE5.6 kmh NNE 3.5 mph5.6 kmh 29.86 in1011.2 mb - 0.00 in0.0 mm 0.14 in3.6 mm
06:20 PM 35.8°F2.1°C 34.8°F1.6°C 96% 3.5 mph N5.6 kmh N 3.5 mph5.6 kmh 29.86 in1011.2 mb - 0.00 in0.0 mm 0.14 in3.6 mm
06:15 PM 35.8°F2.1°C 34.8°F1.6°C 96% 3.5 mph NNE5.6 kmh NNE 3.5 mph5.6 kmh 29.86 in1011.2 mb - 0.00 in0.0 mm 0.14 in3.6 mm
06:10 PM 35.8°F2.1°C 34.8°F1.6°C 96% 2.3 mph NNE3.7 kmh NNE 3.5 mph5.6 kmh 29.86 in1011.2 mb - 0.00 in0.0 mm 0.14 in3.6 mm
06:00 PM 35.8°F2.1°C 34.8°F1.6°C 96% 2.3 mph N3.7 kmh N 3.5 mph5.6 kmh 29.86 in1011.2 mb - 0.01 in0.3 mm 0.14 in3.6 mm
05:55 PM 35.8°F2.1°C 34.8°F1.6°C 96% 2.3 mph ENE3.7 kmh ENE 2.3 mph3.7 kmh 29.86 in1011.2 mb - 0.01 in0.3 mm 0.14 in3.6 mm
05:50 PM 35.8°F2.1°C 34.8°F1.6°C 96% 3.5 mph NNE5.6 kmh NNE 3.5 mph5.6 kmh 29.86 in1011.2 mb - 0.00 in0.0 mm 0.13 in3.3 mm
05:45 PM 35.8°F2.1°C 34.8°F1.6°C 96% 2.3 mph NNE3.7 kmh NNE 3.5 mph5.6 kmh 29.86 in1011.2 mb - 0.00 in0.0 mm 0.13 in3.3 mm
05:40 PM 35.8°F2.1°C 34.8°F1.6°C 96% 3.5 mph NW5.6 kmh NW 2.3 mph3.7 kmh 29.86 in1011.2 mb - 0.00 in0.0 mm 0.13 in3.3 mm
05:35 PM 36.0°F2.2°C 34.9°F1.6°C 96% 3.5 mph NNW5.6 kmh NNW 3.5 mph5.6 kmh 29.86 in1011.2 mb - 0.01 in0.3 mm 0.13 in3.3 mm
05:30 PM 36.0°F2.2°C 34.9°F1.6°C 96% 2.3 mph NE3.7 kmh NE 4.6 mph7.4 kmh 29.86 in1011.2 mb - 0.00 in0.0 mm 0.12 in3.0 mm
05:25 PM 36.1°F2.3°C 35.0°F1.7°C 96% 3.5 mph NE5.6 kmh NE 4.6 mph7.4 kmh 29.86 in1011.2 mb - 0.00 in0.0 mm 0.12 in3.0 mm
05:20 PM 36.1°F2.3°C 35.1°F1.7°C 96% 3.5 mph N5.6 kmh N 3.5 mph5.6 kmh 29.86 in1011.2 mb - 0.00 in0.0 mm 0.12 in3.0 mm
05:15 PM 36.1°F2.3°C 35.1°F1.7°C 96% 3.5 mph WNW5.6 kmh WNW 3.5 mph5.6 kmh 29.86 in1011.2 mb - 0.00 in0.0 mm 0.12 in3.0 mm
05:10 PM 36.1°F2.3°C 35.1°F1.7°C 96% 3.5 mph NNE5.6 kmh NNE 3.5 mph5.6 kmh 29.86 in1011.2 mb - 0.00 in0.0 mm 0.12 in3.0 mm
05:00 PM 36.1°F2.3°C 35.1°F1.7°C 96% 3.5 mph NE5.6 kmh NE 5.8 mph9.3 kmh 29.85 in1010.8 mb - 0.00 in0.0 mm 0.12 in3.0 mm
04:55 PM 36.1°F2.3°C 35.1°F1.7°C 96% 4.6 mph NNE7.4 kmh NNE 5.8 mph9.3 kmh 29.85 in1010.8 mb - 0.00 in0.0 mm 0.12 in3.0 mm
04:50 PM 36.5°F2.5°C 35.5°F1.9°C 96% 3.5 mph NNE5.6 kmh NNE 5.8 mph9.3 kmh 29.85 in1010.8 mb - 0.00 in0.0 mm 0.12 in3.0 mm
04:45 PM 36.5°F2.5°C 35.5°F1.9°C 96% 3.5 mph N5.6 kmh N 3.5 mph5.6 kmh 29.86 in1011.2 mb - 0.00 in0.0 mm 0.12 in3.0 mm
04:40 PM 36.5°F2.5°C 35.5°F1.9°C 96% 3.5 mph NNW5.6 kmh NNW 5.8 mph9.3 kmh 29.85 in1010.8 mb - 0.00 in0.0 mm 0.12 in3.0 mm
04:35 PM 36.5°F2.5°C 35.5°F1.9°C 96% 3.5 mph N5.6 kmh N 3.5 mph5.6 kmh 29.85 in1010.8 mb - 0.00 in0.0 mm 0.12 in3.0 mm
04:30 PM 36.5°F2.5°C 35.5°F1.9°C 96% 3.5 mph N5.6 kmh N 3.5 mph5.6 kmh 29.86 in1011.2 mb - 0.00 in0.0 mm 0.12 in3.0 mm
04:25 PM 36.5°F2.5°C 35.5°F1.9°C 96% 4.6 mph N7.4 kmh N 4.6 mph7.4 kmh 29.86 in1011.2 mb - 0.00 in0.0 mm 0.12 in3.0 mm
04:20 PM 36.5°F2.5°C 35.5°F1.9°C 96% 3.5 mph N5.6 kmh N 3.5 mph5.6 kmh 29.86 in1011.2 mb - 0.00 in0.0 mm 0.12 in3.0 mm
04:15 PM 36.7°F2.6°C 35.6°F2.0°C 96% 4.6 mph NNW7.4 kmh NNW 5.8 mph9.3 kmh 29.86 in1011.2 mb - 0.00 in0.0 mm 0.12 in3.0 mm
04:10 PM 36.9°F2.7°C 35.8°F2.1°C 96% 4.6 mph NNW7.4 kmh NNW 3.5 mph5.6 kmh 29.85 in1010.8 mb - 0.00 in0.0 mm 0.12 in3.0 mm
04:00 PM 36.9°F2.7°C 35.8°F2.1°C 96% 3.5 mph N5.6 kmh N 5.8 mph9.3 kmh 29.85 in1010.8 mb - 0.01 in0.3 mm 0.12 in3.0 mm
03:55 PM 36.9°F2.7°C 35.8°F2.1°C 96% 3.5 mph NNW5.6 kmh NNW 3.5 mph5.6 kmh 29.85 in1010.8 mb - 0.00 in0.0 mm 0.11 in2.8 mm
03:50 PM 36.9°F2.7°C 35.8°F2.1°C 96% 3.5 mph WNW5.6 kmh WNW 4.6 mph7.4 kmh 29.85 in1010.8 mb - 0.00 in0.0 mm 0.11 in2.8 mm
03:45 PM 36.9°F2.7°C 35.8°F2.1°C 96% 3.5 mph N5.6 kmh N 5.8 mph9.3 kmh 29.85 in1010.8 mb - 0.00 in0.0 mm 0.11 in2.8 mm
03:40 PM 37.0°F2.8°C 36.0°F2.2°C 96% 3.5 mph NE5.6 kmh NE 5.8 mph9.3 kmh 29.86 in1011.2 mb - 0.00 in0.0 mm 0.11 in2.8 mm
03:35 PM 37.2°F2.9°C 36.2°F2.3°C 96% 2.3 mph NW3.7 kmh NW 3.5 mph5.6 kmh 29.85 in1010.8 mb - 0.01 in0.3 mm 0.11 in2.8 mm
03:30 PM 37.3°F2.9°C 36.2°F2.3°C 96% 2.3 mph NNE3.7 kmh NNE 3.5 mph5.6 kmh 29.86 in1011.2 mb - 0.00 in0.0 mm 0.10 in2.5 mm
03:25 PM 37.4°F3.0°C 36.3°F2.4°C 96% 2.3 mph NW3.7 kmh NW 3.5 mph5.6 kmh 29.86 in1011.2 mb - 0.01 in0.3 mm 0.10 in2.5 mm
03:20 PM 37.2°F2.9°C 36.2°F2.3°C 96% 3.5 mph NW5.6 kmh NW 3.5 mph5.6 kmh 29.86 in1011.2 mb - 0.00 in0.0 mm 0.09 in2.3 mm
03:15 PM 37.6°F3.1°C 36.5°F2.5°C 96% 2.3 mph NW3.7 kmh NW 3.5 mph5.6 kmh 29.86 in1011.2 mb - 0.00 in0.0 mm 0.09 in2.3 mm
03:10 PM 37.4°F3.0°C 36.4°F2.4°C 96% 2.3 mph N3.7 kmh N 2.3 mph3.7 kmh 29.86 in1011.2 mb - 0.01 in0.3 mm 0.09 in2.3 mm
03:00 PM 37.4°F3.0°C 36.4°F2.4°C 96% 2.3 mph NNE3.7 kmh NNE 3.5 mph5.6 kmh 29.86 in1011.2 mb - 0.01 in0.3 mm 0.09 in2.3 mm
02:55 PM 37.4°F3.0°C 36.4°F2.4°C 96% 2.3 mph N3.7 kmh N 3.5 mph5.6 kmh 29.86 in1011.2 mb - 0.00 in0.0 mm 0.08 in2.0 mm
02:50 PM 37.4°F3.0°C 36.4°F2.4°C 96% 2.3 mph 3.7 kmh 3.5 mph5.6 kmh 29.86 in1011.2 mb - 0.00 in0.0 mm 0.08 in2.0 mm
02:45 PM 37.4°F3.0°C 36.4°F2.4°C 96% 2.3 mph N3.7 kmh N 3.5 mph5.6 kmh 29.86 in1011.2 mb - 0.00 in0.0 mm 0.08 in2.0 mm
02:40 PM 37.4°F3.0°C 36.4°F2.4°C 96% 2.3 mph N3.7 kmh N 3.5 mph5.6 kmh 29.86 in1011.2 mb - 0.01 in0.3 mm 0.08 in2.0 mm
02:35 PM 37.4°F3.0°C 36.4°F2.4°C 96% 2.3 mph N3.7 kmh N 3.5 mph5.6 kmh 29.86 in1011.2 mb - 0.00 in0.0 mm 0.07 in1.8 mm
02:30 PM 37.4°F3.0°C 36.4°F2.4°C 96% 2.3 mph NNW3.7 kmh NNW 2.3 mph3.7 kmh 29.86 in1011.2 mb - 0.00 in0.0 mm 0.07 in1.8 mm
02:25 PM 37.4°F3.0°C 36.4°F2.4°C 96% 2.3 mph NNE3.7 kmh NNE 3.5 mph5.6 kmh 29.87 in1011.5 mb - 0.00 in0.0 mm 0.07 in1.8 mm
02:20 PM 37.4°F3.0°C 36.4°F2.4°C 96% 3.5 mph NNW5.6 kmh NNW 4.6 mph7.4 kmh 29.86 in1011.2 mb - 0.00 in0.0 mm 0.07 in1.8 mm
02:15 PM 37.4°F3.0°C 36.4°F2.4°C 96% 3.5 mph N5.6 kmh N 4.6 mph7.4 kmh 29.88 in1011.9 mb - 0.00 in0.0 mm 0.07 in1.8 mm
02:10 PM 37.4°F3.0°C 36.4°F2.4°C 96% 3.5 mph NNE5.6 kmh NNE 2.3 mph3.7 kmh 29.88 in1011.9 mb - 0.00 in0.0 mm 0.07 in1.8 mm
02:00 PM 37.3°F2.9°C 36.3°F2.4°C 96% 3.5 mph NNE5.6 kmh NNE 3.5 mph5.6 kmh 29.88 in1011.9 mb - 0.00 in0.0 mm 0.07 in1.8 mm
01:55 PM 37.0°F2.8°C 36.0°F2.2°C 96% 4.6 mph NNW7.4 kmh NNW 4.6 mph7.4 kmh 29.86 in1011.2 mb - 0.00 in0.0 mm 0.07 in1.8 mm
01:50 PM 37.0°F2.8°C 36.0°F2.2°C 96% 3.5 mph N5.6 kmh N 3.5 mph5.6 kmh 29.86 in1011.2 mb - 0.01 in0.3 mm 0.07 in1.8 mm
01:45 PM 37.0°F2.8°C 36.0°F2.2°C 96% 3.5 mph NNW5.6 kmh NNW 3.5 mph5.6 kmh 29.87 in1011.5 mb - 0.01 in0.3 mm 0.07 in1.8 mm
01:40 PM 37.0°F2.8°C 36.0°F2.2°C 96% 3.5 mph NNW5.6 kmh NNW 4.6 mph7.4 kmh 29.86 in1011.2 mb - 0.00 in0.0 mm 0.06 in1.5 mm
01:35 PM 37.4°F3.0°C 36.4°F2.4°C 96% 3.5 mph N5.6 kmh N 3.5 mph5.6 kmh 29.87 in1011.5 mb - 0.01 in0.3 mm 0.06 in1.5 mm
01:30 PM 37.4°F3.0°C 36.4°F2.4°C 96% 3.5 mph N5.6 kmh N 3.5 mph5.6 kmh 29.88 in1011.9 mb - 0.00 in0.0 mm 0.05 in1.3 mm
01:25 PM 37.4°F3.0°C 36.4°F2.4°C 96% 3.5 mph NNE5.6 kmh NNE 3.5 mph5.6 kmh 29.87 in1011.5 mb - 0.00 in0.0 mm 0.05 in1.3 mm
01:20 PM 37.2°F2.9°C 36.2°F2.3°C 96% 3.5 mph N5.6 kmh N 5.8 mph9.3 kmh 29.88 in1011.9 mb - 0.00 in0.0 mm 0.05 in1.3 mm
01:15 PM 37.6°F3.1°C 36.5°F2.5°C 96% 3.5 mph NNW5.6 kmh NNW 5.8 mph9.3 kmh 29.87 in1011.5 mb - 0.00 in0.0 mm 0.05 in1.3 mm
01:10 PM 37.6°F3.1°C 36.5°F2.5°C 96% 3.5 mph NNW5.6 kmh NNW 3.5 mph5.6 kmh 29.88 in1011.9 mb - 0.00 in0.0 mm 0.05 in1.3 mm
01:00 PM 37.6°F3.1°C 36.5°F2.5°C 96% 3.5 mph NNE5.6 kmh NNE 5.8 mph9.3 kmh 29.88 in1011.9 mb - 0.00 in0.0 mm 0.05 in1.3 mm
12:55 PM 37.6°F3.1°C 36.5°F2.5°C 96% 2.3 mph N3.7 kmh N 3.5 mph5.6 kmh 29.88 in1011.9 mb - 0.00 in0.0 mm 0.05 in1.3 mm
12:50 PM 37.6°F3.1°C 36.5°F2.5°C 96% 2.3 mph NNW3.7 kmh NNW 3.5 mph5.6 kmh 29.88 in1011.9 mb - 0.01 in0.3 mm 0.05 in1.3 mm
12:45 PM 37.4°F3.0°C 36.4°F2.4°C 96% 3.5 mph N5.6 kmh N 2.3 mph3.7 kmh 29.88 in1011.9 mb - 0.01 in0.3 mm 0.04 in1.0 mm
12:40 PM 37.4°F3.0°C 36.4°F2.4°C 96% 2.3 mph NNE3.7 kmh NNE 3.5 mph5.6 kmh 29.90 in1012.5 mb - 0.00 in0.0 mm 0.03 in0.8 mm
12:35 PM 37.4°F3.0°C 36.4°F2.4°C 96% 1.2 mph NNE1.9 kmh NNE 2.3 mph3.7 kmh 29.88 in1011.9 mb - 0.00 in0.0 mm 0.03 in0.8 mm
12:30 PM 37.4°F3.0°C 36.4°F2.4°C 96% 2.3 mph NW3.7 kmh NW 3.5 mph5.6 kmh 29.88 in1011.9 mb - 0.00 in0.0 mm 0.03 in0.8 mm
12:25 PM 37.6°F3.1°C 36.5°F2.5°C 96% 2.3 mph NE3.7 kmh NE 4.6 mph7.4 kmh 29.90 in1012.5 mb - 0.00 in0.0 mm 0.03 in0.8 mm
12:20 PM 37.6°F3.1°C 36.5°F2.5°C 96% 3.5 mph NE5.6 kmh NE 3.5 mph5.6 kmh 29.88 in1011.9 mb - 0.00 in0.0 mm 0.03 in0.8 mm
12:15 PM 37.6°F3.1°C 36.5°F2.5°C 96% 3.5 mph NNE5.6 kmh NNE 3.5 mph5.6 kmh 29.89 in1012.2 mb - 0.00 in0.0 mm 0.03 in0.8 mm
12:10 PM 37.6°F3.1°C 36.5°F2.5°C 96% 3.5 mph NE5.6 kmh NE 3.5 mph5.6 kmh 29.90 in1012.5 mb - 0.00 in0.0 mm 0.03 in0.8 mm
12:00 PM 37.6°F3.1°C 36.5°F2.5°C 96% 3.5 mph NNE5.6 kmh NNE 4.6 mph7.4 kmh 29.90 in1012.5 mb - 0.00 in0.0 mm 0.03 in0.8 mm
11:55 AM 37.6°F3.1°C 36.5°F2.5°C 96% 3.5 mph N5.6 kmh N 3.5 mph5.6 kmh 29.90 in1012.5 mb - 0.01 in0.3 mm 0.03 in0.8 mm
11:50 AM 37.6°F3.1°C 36.5°F2.5°C 96% 3.5 mph N5.6 kmh N 4.6 mph7.4 kmh 29.90 in1012.5 mb - 0.01 in0.3 mm 0.03 in0.8 mm
11:45 AM 37.6°F3.1°C 36.5°F2.5°C 96% 3.5 mph NNE5.6 kmh NNE 3.5 mph5.6 kmh 29.90 in1012.5 mb - 0.00 in0.0 mm 0.02 in0.5 mm
11:40 AM 37.4°F3.0°C 36.4°F2.4°C 96% 3.5 mph N5.6 kmh N 4.6 mph7.4 kmh 29.90 in1012.5 mb - 0.01 in0.3 mm 0.02 in0.5 mm
11:35 AM 37.2°F2.9°C 36.2°F2.3°C 96% 3.5 mph NNE5.6 kmh NNE 3.5 mph5.6 kmh 29.90 in1012.5 mb - 0.01 in0.3 mm 0.02 in0.5 mm
11:30 AM 37.2°F2.9°C 36.2°F2.3°C 96% 3.5 mph N5.6 kmh N 4.6 mph7.4 kmh 29.90 in1012.5 mb - 0.00 in0.0 mm 0.01 in0.3 mm
11:25 AM 37.2°F2.9°C 36.2°F2.3°C 96% 2.3 mph NW3.7 kmh NW 3.5 mph5.6 kmh 29.91 in1012.9 mb - 0.00 in0.0 mm 0.01 in0.3 mm
11:20 AM 36.9°F2.7°C 35.8°F2.1°C 96% 3.5 mph N5.6 kmh N 3.5 mph5.6 kmh 29.91 in1012.9 mb - 0.00 in0.0 mm 0.01 in0.3 mm
11:15 AM 36.7°F2.6°C 35.6°F2.0°C 96% 3.5 mph N5.6 kmh N 3.5 mph5.6 kmh 29.91 in1012.9 mb - 0.01 in0.3 mm 0.01 in0.3 mm
11:10 AM 36.7°F2.6°C 35.6°F2.0°C 96% 2.3 mph NNE3.7 kmh NNE 3.5 mph5.6 kmh 0.00 in0.0 mb - 0.00 in0.0 mm 0.01 in0.3 mm
10:55 AM 37.0°F2.8°C 34.7°F1.5°C 91% 4.6 mph N7.4 kmh N 3.5 mph5.6 kmh 29.98 in1015.2 mb - 0.00 in0.0 mm 0.00 in0.0 mm
10:50 AM 37.0°F2.8°C 34.7°F1.5°C 91% 4.6 mph N7.4 kmh N 3.5 mph5.6 kmh 29.98 in1015.2 mb - 0.00 in0.0 mm 0.00 in0.0 mm
10:45 AM 37.0°F2.8°C 34.7°F1.5°C 91% 4.6 mph N7.4 kmh N 3.5 mph5.6 kmh 29.98 in1015.2 mb - 0.00 in0.0 mm 0.00 in0.0 mm
10:40 AM 37.0°F2.8°C 34.7°F1.5°C 91% 4.6 mph N7.4 kmh N 3.5 mph5.6 kmh 29.98 in1015.2 mb - 0.00 in0.0 mm 0.00 in0.0 mm
10:25 AM 37.0°F2.8°C 34.7°F1.5°C 91% 4.6 mph N7.4 kmh N 3.5 mph5.6 kmh 29.98 in1015.2 mb - 0.00 in0.0 mm 0.00 in0.0 mm
10:20 AM 37.0°F2.8°C 34.7°F1.5°C 91% 4.6 mph N7.4 kmh N 3.5 mph5.6 kmh 29.98 in1015.2 mb - 0.00 in0.0 mm 0.00 in0.0 mm
10:15 AM 37.0°F2.8°C 34.7°F1.5°C 91% 4.6 mph N7.4 kmh N 3.5 mph5.6 kmh 29.98 in1015.2 mb - 0.00 in0.0 mm 0.00 in0.0 mm
10:10 AM 37.0°F2.8°C 34.7°F1.5°C 91% 4.6 mph N7.4 kmh N 3.5 mph5.6 kmh 29.98 in1015.2 mb - 0.00 in0.0 mm 0.00 in0.0 mm
09:55 AM 37.0°F2.8°C 34.7°F1.5°C 91% 4.6 mph N7.4 kmh N 3.5 mph5.6 kmh 29.98 in1015.2 mb - 0.00 in0.0 mm 0.00 in0.0 mm
09:50 AM 37.0°F2.8°C 34.7°F1.5°C 91% 4.6 mph N7.4 kmh N 3.5 mph5.6 kmh 29.98 in1015.2 mb - 0.00 in0.0 mm 0.00 in0.0 mm
09:45 AM 37.0°F2.8°C 34.7°F1.5°C 91% 4.6 mph N7.4 kmh N 3.5 mph5.6 kmh 29.98 in1015.2 mb - 0.00 in0.0 mm 0.00 in0.0 mm
09:40 AM 37.0°F2.8°C 34.7°F1.5°C 91% 4.6 mph N7.4 kmh N 3.5 mph5.6 kmh 29.98 in1015.2 mb - 0.00 in0.0 mm 0.00 in0.0 mm
09:30 AM 37.0°F2.8°C 34.7°F1.5°C 91% 4.6 mph N7.4 kmh N 3.5 mph5.6 kmh 29.98 in1015.2 mb - 0.00 in0.0 mm 0.00 in0.0 mm
09:25 AM 37.0°F2.8°C 34.7°F1.5°C 91% 4.6 mph N7.4 kmh N 3.5 mph5.6 kmh 29.98 in1015.2 mb - 0.00 in0.0 mm 0.00 in0.0 mm
09:20 AM 37.0°F2.8°C 34.7°F1.5°C 91% 4.6 mph N7.4 kmh N 3.5 mph5.6 kmh 29.98 in1015.2 mb - 0.00 in0.0 mm 0.00 in0.0 mm
09:15 AM 37.0°F2.8°C 34.7°F1.5°C 91% 4.6 mph N7.4 kmh N 3.5 mph5.6 kmh 29.98 in1015.2 mb - 0.00 in0.0 mm 0.00 in0.0 mm
09:10 AM 37.0°F2.8°C 34.7°F1.5°C 91% 4.6 mph N7.4 kmh N 3.5 mph5.6 kmh 29.98 in1015.2 mb - 0.00 in0.0 mm 0.00 in0.0 mm
09:00 AM 37.0°F2.8°C 34.7°F1.5°C 91% 4.6 mph N7.4 kmh N 3.5 mph5.6 kmh 29.98 in1015.2 mb - 0.00 in0.0 mm 0.00 in0.0 mm
08:55 AM 37.0°F2.8°C 34.7°F1.5°C 91% 4.6 mph N7.4 kmh N 3.5 mph5.6 kmh 29.98 in1015.2 mb - 0.00 in0.0 mm 0.00 in0.0 mm
08:50 AM 37.0°F2.8°C 34.7°F1.5°C 91% 4.6 mph N7.4 kmh N 3.5 mph5.6 kmh 29.98 in1015.2 mb - 0.00 in0.0 mm 0.00 in0.0 mm
08:35 AM 37.0°F2.8°C 34.7°F1.5°C 91% 4.6 mph N7.4 kmh N 3.5 mph5.6 kmh 29.98 in1015.2 mb - 0.00 in0.0 mm 0.00 in0.0 mm
08:30 AM 37.0°F2.8°C 34.7°F1.5°C 91% 4.6 mph N7.4 kmh N 3.5 mph5.6 kmh 29.98 in1015.2 mb - 0.00 in0.0 mm 0.00 in0.0 mm
08:25 AM 37.0°F2.8°C 34.7°F1.5°C 91% 4.6 mph N7.4 kmh N 3.5 mph5.6 kmh 29.98 in1015.2 mb - 0.00 in0.0 mm 0.00 in0.0 mm
08:20 AM 37.0°F2.8°C 34.7°F1.5°C 91% 4.6 mph N7.4 kmh N 3.5 mph5.6 kmh 29.98 in1015.2 mb - 0.00 in0.0 mm 0.00 in0.0 mm
08:00 AM 37.0°F2.8°C 34.7°F1.5°C 91% 4.6 mph N7.4 kmh N 3.5 mph5.6 kmh 29.98 in1015.2 mb - 0.00 in0.0 mm 0.00 in0.0 mm
07:55 AM 37.0°F2.8°C 34.7°F1.5°C 91% 4.6 mph N7.4 kmh N 3.5 mph5.6 kmh 29.98 in1015.2 mb - 0.00 in0.0 mm 0.00 in0.0 mm
07:45 AM 37.0°F2.8°C 34.7°F1.5°C 91% 4.6 mph N7.4 kmh N 3.5 mph5.6 kmh 29.98 in1015.2 mb - 0.00 in0.0 mm 0.00 in0.0 mm
07:40 AM 37.0°F2.8°C 34.7°F1.5°C 91% 4.6 mph N7.4 kmh N 3.5 mph5.6 kmh 29.98 in1015.2 mb - 0.00 in0.0 mm 0.00 in0.0 mm
07:35 AM 37.0°F2.8°C 34.7°F1.5°C 91% 4.6 mph N7.4 kmh N 3.5 mph5.6 kmh 29.98 in1015.2 mb - 0.00 in0.0 mm 0.00 in0.0 mm
07:30 AM 37.0°F2.8°C 34.7°F1.5°C 91% 4.6 mph N7.4 kmh N 3.5 mph5.6 kmh 29.98 in1015.2 mb - 0.00 in0.0 mm 0.00 in0.0 mm
07:15 AM 37.0°F2.8°C 34.7°F1.5°C 91% 4.6 mph N7.4 kmh N 3.5 mph5.6 kmh 29.98 in1015.2 mb - 0.00 in0.0 mm 0.00 in0.0 mm
07:10 AM 37.0°F2.8°C 34.7°F1.5°C 91% 4.6 mph N7.4 kmh N 3.5 mph5.6 kmh 29.98 in1015.2 mb - 0.00 in0.0 mm 0.00 in0.0 mm
06:50 AM 37.0°F2.8°C 34.7°F1.5°C 91% 4.6 mph N7.4 kmh N 3.5 mph5.6 kmh 29.98 in1015.2 mb - 0.00 in0.0 mm 0.00 in0.0 mm
06:45 AM 37.0°F2.8°C 34.7°F1.5°C 91% 4.6 mph N7.4 kmh N 3.5 mph5.6 kmh 29.98 in1015.2 mb - 0.00 in0.0 mm 0.00 in0.0 mm
06:40 AM 37.0°F2.8°C 34.7°F1.5°C 91% 4.6 mph N7.4 kmh N 3.5 mph5.6 kmh 29.98 in1015.2 mb - 0.00 in0.0 mm 0.00 in0.0 mm
06:35 AM 37.0°F2.8°C 34.7°F1.5°C 91% 4.6 mph N7.4 kmh N 3.5 mph5.6 kmh 29.98 in1015.2 mb - 0.00 in0.0 mm 0.00 in0.0 mm
06:20 AM 37.0°F2.8°C 34.7°F1.5°C 91% 4.6 mph N7.4 kmh N 3.5 mph5.6 kmh 29.98 in1015.2 mb - 0.00 in0.0 mm 0.00 in0.0 mm
06:15 AM 37.0°F2.8°C 34.7°F1.5°C 91% 4.6 mph N7.4 kmh N 3.5 mph5.6 kmh 29.98 in1015.2 mb - 0.00 in0.0 mm 0.00 in0.0 mm
06:10 AM 37.0°F2.8°C 34.7°F1.5°C 91% 4.6 mph N7.4 kmh N 3.5 mph5.6 kmh 29.98 in1015.2 mb - 0.00 in0.0 mm 0.00 in0.0 mm
05:55 AM 37.0°F2.8°C 34.7°F1.5°C 91% 4.6 mph N7.4 kmh N 3.5 mph5.6 kmh 29.98 in1015.2 mb - 0.00 in0.0 mm 0.00 in0.0 mm
05:50 AM 37.0°F2.8°C 34.7°F1.5°C 91% 4.6 mph N7.4 kmh N 3.5 mph5.6 kmh 29.98 in1015.2 mb - 0.00 in0.0 mm 0.00 in0.0 mm
05:45 AM 37.0°F2.8°C 34.7°F1.5°C 91% 4.6 mph N7.4 kmh N 3.5 mph5.6 kmh 29.98 in1015.2 mb - 0.00 in0.0 mm 0.00 in0.0 mm
05:40 AM 37.0°F2.8°C 34.7°F1.5°C 91% 4.6 mph N7.4 kmh N 3.5 mph5.6 kmh 29.98 in1015.2 mb - 0.00 in0.0 mm 0.00 in0.0 mm
05:25 AM 37.0°F2.8°C 34.7°F1.5°C 91% 4.6 mph N7.4 kmh N 3.5 mph5.6 kmh 29.98 in1015.2 mb - 0.00 in0.0 mm 0.00 in0.0 mm
05:20 AM 37.0°F2.8°C 34.7°F1.5°C 91% 4.6 mph N7.4 kmh N 3.5 mph5.6 kmh 29.98 in1015.2 mb - 0.00 in0.0 mm 0.00 in0.0 mm
05:15 AM 37.0°F2.8°C 34.7°F1.5°C 91% 4.6 mph N7.4 kmh N 3.5 mph5.6 kmh 29.98 in1015.2 mb - 0.00 in0.0 mm 0.00 in0.0 mm
05:10 AM 37.0°F2.8°C 34.7°F1.5°C 91% 4.6 mph N7.4 kmh N 3.5 mph5.6 kmh 29.98 in1015.2 mb - 0.00 in0.0 mm 0.00 in0.0 mm
05:00 AM 37.0°F2.8°C 34.7°F1.5°C 91% 4.6 mph N7.4 kmh N 3.5 mph5.6 kmh 29.98 in1015.2 mb - 0.00 in0.0 mm 0.00 in0.0 mm
04:55 AM 37.0°F2.8°C 34.7°F1.5°C 91% 4.6 mph N7.4 kmh N 3.5 mph5.6 kmh 29.98 in1015.2 mb - 0.00 in0.0 mm 0.00 in0.0 mm
04:50 AM 37.0°F2.8°C 34.7°F1.5°C 91% 4.6 mph N7.4 kmh N 3.5 mph5.6 kmh 29.98 in1015.2 mb - 0.00 in0.0 mm 0.00 in0.0 mm
04:35 AM 37.0°F2.8°C 34.7°F1.5°C 91% 4.6 mph N7.4 kmh N 3.5 mph5.6 kmh 29.98 in1015.2 mb - 0.00 in0.0 mm 0.00 in0.0 mm
04:30 AM 37.0°F2.8°C 34.7°F1.5°C 91% 4.6 mph N7.4 kmh N 3.5 mph5.6 kmh 29.98 in1015.2 mb - 0.00 in0.0 mm 0.00 in0.0 mm
04:25 AM 37.0°F2.8°C 34.7°F1.5°C 91% 4.6 mph N7.4 kmh N 3.5 mph5.6 kmh 29.98 in1015.2 mb - 0.00 in0.0 mm 0.00 in0.0 mm
04:20 AM 37.0°F2.8°C 34.7°F1.5°C 91% 4.6 mph N7.4 kmh N 3.5 mph5.6 kmh 29.98 in1015.2 mb - 0.00 in0.0 mm 0.00 in0.0 mm
04:00 AM 37.0°F2.8°C 34.7°F1.5°C 91% 4.6 mph N7.4 kmh N 3.5 mph5.6 kmh 29.98 in1015.2 mb - 0.00 in0.0 mm 0.00 in0.0 mm
03:45 AM 37.0°F2.8°C 34.7°F1.5°C 91% 4.6 mph N7.4 kmh N 3.5 mph5.6 kmh 29.98 in1015.2 mb - 0.00 in0.0 mm 0.00 in0.0 mm
03:40 AM 37.0°F2.8°C 34.7°F1.5°C 91% 4.6 mph N7.4 kmh N 3.5 mph5.6 kmh 29.98 in1015.2 mb - 0.00 in0.0 mm 0.00 in0.0 mm
03:35 AM 37.0°F2.8°C 34.7°F1.5°C 91% 4.6 mph N7.4 kmh N 3.5 mph5.6 kmh 29.98 in1015.2 mb - 0.00 in0.0 mm 0.00 in0.0 mm
03:20 AM 37.0°F2.8°C 34.7°F1.5°C 91% 4.6 mph N7.4 kmh N 3.5 mph5.6 kmh 29.98 in1015.2 mb - 0.00 in0.0 mm 0.00 in0.0 mm
03:15 AM 37.0°F2.8°C 34.7°F1.5°C 91% 4.6 mph N7.4 kmh N 3.5 mph5.6 kmh 29.98 in1015.2 mb - 0.00 in0.0 mm 0.00 in0.0 mm
03:10 AM 37.0°F2.8°C 34.7°F1.5°C 91% 4.6 mph N7.4 kmh N 3.5 mph5.6 kmh 29.98 in1015.2 mb - 0.00 in0.0 mm 0.00 in0.0 mm
02:55 AM 37.0°F2.8°C 34.7°F1.5°C 91% 4.6 mph N7.4 kmh N 3.5 mph5.6 kmh 29.98 in1015.2 mb - 0.00 in0.0 mm 0.00 in0.0 mm
02:50 AM 37.0°F2.8°C 34.7°F1.5°C 91% 4.6 mph N7.4 kmh N 3.5 mph5.6 kmh 29.98 in1015.2 mb - 0.00 in0.0 mm 0.00 in0.0 mm
02:45 AM 37.0°F2.8°C 34.7°F1.5°C 91% 4.6 mph N7.4 kmh N 3.5 mph5.6 kmh 29.98 in1015.2 mb - 0.00 in0.0 mm 0.00 in0.0 mm
02:40 AM 37.0°F2.8°C 34.7°F1.5°C 91% 4.6 mph N7.4 kmh N 3.5 mph5.6 kmh 29.98 in1015.2 mb - 0.00 in0.0 mm 0.00 in0.0 mm
02:25 AM 37.0°F2.8°C 34.7°F1.5°C 91% 4.6 mph N7.4 kmh N 3.5 mph5.6 kmh 29.98 in1015.2 mb - 0.00 in0.0 mm 0.00 in0.0 mm
02:20 AM 37.0°F2.8°C 34.7°F1.5°C 91% 4.6 mph N7.4 kmh N 3.5 mph5.6 kmh 29.98 in1015.2 mb - 0.00 in0.0 mm 0.00 in0.0 mm
02:15 AM 37.0°F2.8°C 34.7°F1.5°C 91% 4.6 mph N7.4 kmh N 3.5 mph5.6 kmh 29.98 in1015.2 mb - 0.00 in0.0 mm 0.00 in0.0 mm
02:10 AM 37.0°F2.8°C 34.7°F1.5°C 91% 4.6 mph N7.4 kmh N 3.5 mph5.6 kmh 29.98 in1015.2 mb - 0.00 in0.0 mm 0.00 in0.0 mm
02:00 AM 37.0°F2.8°C 34.7°F1.5°C 91% 4.6 mph N7.4 kmh N 3.5 mph5.6 kmh 29.98 in1015.2 mb - 0.00 in0.0 mm 0.00 in0.0 mm
01:55 AM 37.0°F2.8°C 34.7°F1.5°C 91% 4.6 mph N7.4 kmh N 3.5 mph5.6 kmh 29.98 in1015.2 mb - 0.00 in0.0 mm 0.00 in0.0 mm
01:50 AM 37.0°F2.8°C 34.7°F1.5°C 91% 4.6 mph N7.4 kmh N 3.5 mph5.6 kmh 29.98 in1015.2 mb - 0.00 in0.0 mm 0.00 in0.0 mm
01:35 AM 37.0°F2.8°C 34.7°F1.5°C 91% 4.6 mph N7.4 kmh N 3.5 mph5.6 kmh 29.98 in1015.2 mb - 0.00 in0.0 mm 0.00 in0.0 mm
01:30 AM 37.0°F2.8°C 34.7°F1.5°C 91% 4.6 mph N7.4 kmh N 3.5 mph5.6 kmh 29.98 in1015.2 mb - 0.00 in0.0 mm 0.00 in0.0 mm
01:25 AM 37.0°F2.8°C 34.7°F1.5°C 91% 4.6 mph N7.4 kmh N 3.5 mph5.6 kmh 29.98 in1015.2 mb - 0.00 in0.0 mm 0.00 in0.0 mm
01:20 AM 37.0°F2.8°C 34.7°F1.5°C 91% 4.6 mph N7.4 kmh N 3.5 mph5.6 kmh 29.98 in1015.2 mb - 0.00 in0.0 mm 0.00 in0.0 mm
01:00 AM 37.0°F2.8°C 34.7°F1.5°C 91% 4.6 mph N7.4 kmh N 3.5 mph5.6 kmh 29.98 in1015.2 mb - 0.00 in0.0 mm 0.00 in0.0 mm
12:55 AM 37.0°F2.8°C 34.7°F1.5°C 91% 4.6 mph N7.4 kmh N 3.5 mph5.6 kmh 29.98 in1015.2 mb - 0.00 in0.0 mm 0.00 in0.0 mm
12:40 AM 37.0°F2.8°C 34.7°F1.5°C 91% 4.6 mph N7.4 kmh N 3.5 mph5.6 kmh 29.98 in1015.2 mb - 0.00 in0.0 mm 0.00 in0.0 mm
12:35 AM 37.0°F2.8°C 34.7°F1.5°C 91% 4.6 mph N7.4 kmh N 3.5 mph5.6 kmh 29.98 in1015.2 mb - 0.00 in0.0 mm 0.00 in0.0 mm
12:30 AM 37.0°F2.8°C 34.7°F1.5°C 91% 4.6 mph N7.4 kmh N 3.5 mph5.6 kmh 29.98 in1015.2 mb - 0.00 in0.0 mm 0.00 in0.0 mm
12:15 AM 37.0°F2.8°C 34.7°F1.5°C 91% 4.6 mph N7.4 kmh N 3.5 mph5.6 kmh 29.98 in1015.2 mb - 0.00 in0.0 mm 0.00 in0.0 mm
12:10 AM 37.0°F2.8°C 34.7°F1.5°C 91% 4.6 mph N7.4 kmh N 3.5 mph5.6 kmh 29.98 in1015.2 mb - 0.00 in0.0 mm 0.00 in0.0 mm
12:00 AM 37.0°F2.8°C 34.7°F1.5°C 91% 4.6 mph N7.4 kmh N 3.5 mph5.6 kmh 29.98 in1015.2 mb - 0.00 in0.0 mm 0.00 in0.0 mm